Time;durP1;ratioP1;P1;durP2;ratioP2;P2;SDS_P1;SDS_P2;PMS_P1;PMS_P2;Temp;Humidity;BMP_temperature;BMP_pressure;BME280_temperature;BME280_humidity;BME280_pressure;Samples;Min_cycle;Max_cycle;Signal;HPM_P1;HPM_P2
2023/05/14 00:01:35;;;;;;;1.20;1.10;;;12.70;99.90;;;;;;4914803;29;20219;-64
2023/05/14 00:04:05;;;;;;;0.70;0.68;;;12.60;99.90;;;;;;4914736;29;20215;-65
2023/05/14 00:06:33;;;;;;;1.20;0.82;;;12.50;99.90;;;;;;4914766;29;20291;-64
2023/05/14 00:09:01;;;;;;;0.70;0.70;;;12.40;99.90;;;;;;4914673;29;20700;-65
2023/05/14 00:11:29;;;;;;;1.20;0.70;;;12.40;99.90;;;;;;4914068;29;20232;-65
2023/05/14 00:13:57;;;;;;;0.65;0.55;;;12.40;99.90;;;;;;4914904;29;20684;-65
2023/05/14 00:16:25;;;;;;;0.90;0.60;;;12.40;99.90;;;;;;4915058;29;20249;-65
2023/05/14 00:18:53;;;;;;;0.85;0.80;;;12.40;99.90;;;;;;4915147;29;20707;-65
2023/05/14 00:21:22;;;;;;;0.73;0.70;;;12.40;99.90;;;;;;4914589;29;20216;-65
2023/05/14 00:23:50;;;;;;;1.02;0.60;;;12.50;99.90;;;;;;4913897;29;20287;-65
2023/05/14 00:26:19;;;;;;;0.60;0.50;;;12.50;99.90;;;;;;4914471;29;20601;-64
2023/05/14 00:28:47;;;;;;;1.13;0.90;;;12.60;99.90;;;;;;4914541;29;20232;-65
2023/05/14 00:31:15;;;;;;;0.70;0.60;;;12.60;99.90;;;;;;4914298;29;20256;-64
2023/05/14 00:33:43;;;;;;;1.15;0.82;;;12.60;99.90;;;;;;4914371;29;20215;-64
2023/05/14 00:36:11;;;;;;;0.82;0.70;;;12.60;99.90;;;;;;4914497;29;20259;-65
2023/05/14 00:38:40;;;;;;;0.70;0.70;;;12.50;99.90;;;;;;4914015;29;20272;-64
2023/05/14 00:41:08;;;;;;;0.80;0.50;;;12.50;99.90;;;;;;4914198;29;20308;-64
2023/05/14 00:43:36;;;;;;;0.70;0.65;;;12.50;99.90;;;;;;4914023;29;20212;-65
2023/05/14 00:46:04;;;;;;;0.90;0.88;;;12.50;99.90;;;;;;4914600;29;20208;-64
2023/05/14 00:48:32;;;;;;;1.13;0.68;;;12.60;99.90;;;;;;4934290;23;20326;-64
2023/05/14 00:51:00;;;;;;;0.70;0.70;;;12.50;99.90;;;;;;4951945;28;20237;-64
2023/05/14 00:53:28;;;;;;;0.80;0.80;;;12.50;99.90;;;;;;4952150;28;20745;-65
2023/05/14 00:55:58;;;;;;;0.80;0.75;;;12.60;99.90;;;;;;4952815;28;20302;-64
2023/05/14 00:58:26;;;;;;;0.95;0.70;;;12.60;99.90;;;;;;4950598;28;20247;-65
2023/05/14 01:00:54;;;;;;;1.05;0.70;;;12.50;99.90;;;;;;4948801;28;20286;-64
2023/05/14 01:03:22;;;;;;;1.23;1.13;;;12.50;99.90;;;;;;4949166;28;20222;-64
2023/05/14 01:05:59;;;;;;;0.80;0.80;;;12.40;99.90;;;;;;4947849;28;20214;-64
2023/05/14 01:08:34;;;;;;;1.80;1.70;;;12.40;99.90;;;;;;4946436;28;20231;-64
2023/05/14 01:11:09;;;;;;;0.60;0.60;;;12.40;99.90;;;;;;4955183;28;20700;-64
2023/05/14 01:13:43;;;;;;;0.77;0.77;;;12.30;99.90;;;;;;4952253;28;20207;-64
2023/05/14 01:16:13;;;;;;;0.90;0.80;;;12.40;99.90;;;;;;4952292;28;20310;-64
2023/05/14 01:18:42;;;;;;;1.10;0.98;;;12.30;99.90;;;;;;4951980;28;20944;-64
2023/05/14 01:21:42;;;;;;;0.70;0.70;;;12.40;99.90;;;;;;4952050;28;20250;-63
2023/05/14 01:24:10;;;;;;;0.70;0.70;;;12.40;99.90;;;;;;4955177;28;20294;-64
2023/05/14 01:26:38;;;;;;;1.42;1.33;;;12.40;99.90;;;;;;4955924;28;20231;-64
2023/05/14 01:29:13;;;;;;;0.60;0.60;;;12.40;99.90;;;;;;4955740;28;20223;-64
2023/05/14 01:31:44;;;;;;;1.02;0.88;;;12.30;99.90;;;;;;4955538;28;20266;-64
2023/05/14 01:34:13;;;;;;;0.70;0.68;;;12.30;99.90;;;;;;4955760;28;20267;-63
2023/05/14 01:36:43;;;;;;;1.50;1.00;;;12.30;99.90;;;;;;4950927;28;20310;-64
2023/05/14 01:39:14;;;;;;;0.70;0.70;;;12.30;99.90;;;;;;4947560;28;20655;-63
2023/05/14 01:41:42;;;;;;;0.98;0.75;;;12.30;99.90;;;;;;4955722;28;20211;-64
2023/05/14 01:44:11;;;;;;;0.93;0.77;;;12.30;99.90;;;;;;4955715;28;20631;-64
2023/05/14 01:46:38;;;;;;;0.80;0.80;;;12.30;99.90;;;;;;4955524;28;20199;-64
2023/05/14 01:49:06;;;;;;;0.82;0.75;;;12.30;99.90;;;;;;4955303;28;20243;-64
2023/05/14 01:51:34;;;;;;;1.10;0.95;;;12.30;99.90;;;;;;4955214;28;20212;-64
2023/05/14 01:54:04;;;;;;;0.80;0.80;;;12.30;99.90;;;;;;4954047;28;20624;-64
2023/05/14 01:56:31;;;;;;;0.60;0.50;;;12.30;99.90;;;;;;4954497;28;20247;-65
2023/05/14 01:58:59;;;;;;;1.13;1.02;;;12.40;99.90;;;;;;4950900;28;20310;-64
2023/05/14 02:01:27;;;;;;;0.82;0.60;;;12.40;99.90;;;;;;4952146;28;20289;-64
2023/05/14 02:03:55;;;;;;;1.20;1.10;;;12.50;99.90;;;;;;4951676;28;20226;-64
2023/05/14 02:06:24;;;;;;;0.88;0.63;;;12.40;99.90;;;;;;4948981;28;20227;-64
2023/05/14 02:08:51;;;;;;;0.82;0.82;;;12.40;99.90;;;;;;4938939;28;20762;-64
2023/05/14 02:11:21;;;;;;;1.15;0.80;;;12.50;99.90;;;;;;4952286;28;20246;-64
2023/05/14 02:13:49;;;;;;;0.60;0.60;;;12.50;99.90;;;;;;4953045;28;20286;-64
2023/05/14 02:16:18;;;;;;;0.82;0.82;;;12.40;99.90;;;;;;4952698;28;20223;-64
2023/05/14 02:18:46;;;;;;;1.52;1.42;;;12.40;99.90;;;;;;4952965;28;20235;-64
2023/05/14 02:21:13;;;;;;;0.95;0.82;;;12.40;99.90;;;;;;4951720;28;20208;-64
2023/05/14 02:23:41;;;;;;;1.02;0.90;;;12.40;99.90;;;;;;4952170;28;20301;-64
2023/05/14 02:26:09;;;;;;;0.80;0.60;;;12.40;99.90;;;;;;4952356;28;20200;-65
2023/05/14 02:28:39;;;;;;;0.90;0.70;;;12.30;99.90;;;;;;4953039;28;20237;-65
2023/05/14 02:31:07;;;;;;;0.68;0.60;;;12.40;99.90;;;;;;4952839;28;20268;-65
2023/05/14 02:33:34;;;;;;;1.23;1.13;;;12.30;99.90;;;;;;4951077;28;20207;-65
2023/05/14 02:36:03;;;;;;;0.90;0.90;;;12.30;99.90;;;;;;4949759;28;20247;-65
2023/05/14 02:38:31;;;;;;;0.75;0.68;;;12.40;99.90;;;;;;4938240;28;20247;-65
2023/05/14 02:40:59;;;;;;;0.93;0.75;;;12.30;99.90;;;;;;4950573;28;20247;-64
2023/05/14 02:43:26;;;;;;;0.80;0.70;;;12.30;99.90;;;;;;4954867;28;20282;-64
2023/05/14 02:45:56;;;;;;;0.90;0.73;;;12.30;99.90;;;;;;4953748;28;20255;-65
2023/05/14 02:48:24;;;;;;;0.75;0.73;;;12.30;99.90;;;;;;4951317;28;20346;-65
2023/05/14 02:50:52;;;;;;;0.68;0.68;;;12.30;99.90;;;;;;4951953;28;20290;-64
2023/05/14 02:53:19;;;;;;;1.00;0.90;;;12.30;99.90;;;;;;4951540;28;20267;-65
2023/05/14 02:55:47;;;;;;;1.13;1.02;;;12.40;99.90;;;;;;4951294;28;20298;-64
2023/05/14 02:58:15;;;;;;;1.00;0.90;;;12.40;99.90;;;;;;4952669;28;20231;-65
2023/05/14 03:00:43;;;;;;;0.73;0.50;;;12.30;99.90;;;;;;4950669;28;20199;-65
2023/05/14 03:03:13;;;;;;;0.93;0.93;;;12.30;99.90;;;;;;4953039;28;20213;-65
2023/05/14 03:05:41;;;;;;;0.85;0.85;;;12.30;99.90;;;;;;4951085;28;20294;-64
2023/05/14 03:08:09;;;;;;;0.70;0.65;;;12.30;99.90;;;;;;4952112;28;20308;-65
2023/05/14 03:10:37;;;;;;;0.93;0.90;;;12.20;99.90;;;;;;4949543;28;20298;-65
2023/05/14 03:13:04;;;;;;;0.73;0.73;;;12.20;99.90;;;;;;4951296;28;20290;-65
2023/05/14 03:15:32;;;;;;;0.80;0.80;;;12.20;99.90;;;;;;4951952;28;20215;-65
2023/05/14 03:18:00;;;;;;;1.13;0.57;;;12.20;99.90;;;;;;4953634;28;20306;-65
2023/05/14 03:20:29;;;;;;;0.70;0.52;;;12.20;99.90;;;;;;4950596;28;20231;-65
2023/05/14 03:22:57;;;;;;;0.95;0.85;;;12.10;99.90;;;;;;4950812;28;20290;-64
2023/05/14 03:25:25;;;;;;;1.40;1.15;;;12.10;99.90;;;;;;4951872;28;20643;-65
2023/05/14 03:27:53;;;;;;;0.80;0.65;;;12.10;99.90;;;;;;4955855;28;20211;-64
2023/05/14 03:30:21;;;;;;;0.75;0.75;;;11.90;99.90;;;;;;4949045;28;20222;-65
2023/05/14 03:32:49;;;;;;;0.70;0.68;;;12.00;99.90;;;;;;4948792;28;20693;-65
2023/05/14 03:35:17;;;;;;;3.38;0.70;;;12.10;99.90;;;;;;4950587;28;20259;-65
2023/05/14 03:37:47;;;;;;;0.70;0.50;;;12.10;99.90;;;;;;4946072;28;20310;-65
2023/05/14 03:40:15;;;;;;;0.77;0.75;;;12.10;99.90;;;;;;4952694;28;20291;-65
2023/05/14 03:42:42;;;;;;;0.80;0.77;;;12.00;99.90;;;;;;4951515;28;20234;-65
2023/05/14 03:45:10;;;;;;;0.80;0.63;;;11.90;99.90;;;;;;4951342;28;20242;-65
2023/05/14 03:47:38;;;;;;;3.40;1.08;;;11.90;99.90;;;;;;4948083;28;20263;-64
2023/05/14 03:50:08;;;;;;;1.20;1.05;;;11.90;99.90;;;;;;4950503;28;20239;-64
2023/05/14 03:52:36;;;;;;;0.80;0.80;;;12.00;99.90;;;;;;4950016;28;20211;-64
2023/05/14 03:55:06;;;;;;;0.60;0.60;;;11.80;99.90;;;;;;4958827;28;20286;-64
2023/05/14 03:57:34;;;;;;;0.60;0.60;;;11.80;99.90;;;;;;4952926;28;20222;-64
2023/05/14 04:00:02;;;;;;;1.17;1.08;;;11.90;99.90;;;;;;4949927;28;20620;-65
2023/05/14 04:02:30;;;;;;;2.20;1.30;;;11.80;99.90;;;;;;4947610;28;20207;-65
2023/05/14 04:04:58;;;;;;;0.70;0.70;;;11.80;99.90;;;;;;4949302;28;20211;-64
2023/05/14 04:07:25;;;;;;;0.98;0.70;;;11.70;99.90;;;;;;4944349;28;20287;-64
2023/05/14 04:09:53;;;;;;;0.90;0.90;;;11.70;99.90;;;;;;4949411;28;20718;-64
2023/05/14 04:12:22;;;;;;;1.02;0.93;;;11.70;99.90;;;;;;4951252;28;20230;-65
2023/05/14 04:14:50;;;;;;;0.60;0.60;;;11.60;99.90;;;;;;4950933;28;20342;-65
2023/05/14 04:17:18;;;;;;;1.95;1.33;;;11.40;99.90;;;;;;4947354;28;20223;-65
2023/05/14 04:19:46;;;;;;;1.25;1.15;;;11.30;99.90;;;;;;4947887;28;20290;-65
2023/05/14 04:22:14;;;;;;;0.70;0.70;;;11.30;99.90;;;;;;4949754;28;20295;-65
2023/05/14 04:24:42;;;;;;;0.85;0.80;;;11.30;99.90;;;;;;4951624;28;20230;-64
2023/05/14 04:27:10;;;;;;;2.45;0.90;;;11.30;99.90;;;;;;4951200;28;20230;-64
2023/05/14 04:29:39;;;;;;;1.00;0.80;;;11.40;99.90;;;;;;4948283;28;20223;-65
2023/05/14 04:32:08;;;;;;;1.10;1.00;;;11.40;99.90;;;;;;4950881;28;20681;-65
2023/05/14 04:34:35;;;;;;;0.65;0.57;;;11.40;99.90;;;;;;4950285;28;20290;-65
2023/05/14 04:37:04;;;;;;;0.93;0.90;;;11.50;99.90;;;;;;4947004;28;20230;-66
2023/05/14 04:39:31;;;;;;;1.20;0.85;;;11.60;99.90;;;;;;4947577;28;20662;-65
2023/05/14 04:41:59;;;;;;;0.80;0.77;;;11.70;99.90;;;;;;4951065;28;20559;-65
2023/05/14 04:44:27;;;;;;;0.70;0.60;;;11.80;99.90;;;;;;4951492;28;20257;-64
2023/05/14 04:46:56;;;;;;;1.00;0.90;;;11.90;99.90;;;;;;4950273;28;20227;-64
2023/05/14 04:49:24;;;;;;;0.90;0.70;;;11.90;99.90;;;;;;4948612;28;20241;-64
2023/05/14 04:51:52;;;;;;;1.45;1.35;;;12.00;99.90;;;;;;4950766;28;20223;-64
2023/05/14 04:54:20;;;;;;;0.85;0.70;;;12.00;99.90;;;;;;4949389;28;20295;-64
2023/05/14 04:56:48;;;;;;;1.00;0.85;;;12.00;99.90;;;;;;4949747;28;20219;-65
2023/05/14 04:59:16;;;;;;;0.77;0.73;;;12.20;99.90;;;;;;4953537;28;20415;-65
2023/05/14 05:01:44;;;;;;;0.90;0.80;;;12.30;99.90;;;;;;4952524;28;20230;-65
2023/05/14 05:04:14;;;;;;;1.33;0.90;;;12.30;99.90;;;;;;4946533;28;20226;-65
2023/05/14 05:06:42;;;;;;;0.60;0.57;;;12.40;99.90;;;;;;4947003;28;20226;-64
2023/05/14 05:09:10;;;;;;;0.70;0.70;;;12.40;99.90;;;;;;4958552;28;20314;-65
2023/05/14 05:11:37;;;;;;;0.80;0.70;;;12.50;99.90;;;;;;4950836;28;20218;-63
2023/05/14 05:14:05;;;;;;;0.80;0.63;;;12.50;99.90;;;;;;4947269;28;20290;-63
2023/05/14 05:16:33;;;;;;;0.95;0.60;;;12.50;99.90;;;;;;4953218;28;20306;-63
2023/05/14 05:19:01;;;;;;;1.67;0.90;;;12.40;99.90;;;;;;4938436;28;20234;-64
2023/05/14 05:21:31;;;;;;;0.75;0.65;;;12.50;99.90;;;;;;4944895;28;20584;-64
2023/05/14 05:23:59;;;;;;;0.70;0.70;;;12.50;99.90;;;;;;4938507;28;20208;-64
2023/05/14 05:26:27;;;;;;;0.77;0.77;;;12.60;99.90;;;;;;4946932;28;20291;-64
2023/05/14 05:28:55;;;;;;;1.02;0.93;;;12.70;99.90;;;;;;4948800;28;20605;-64
2023/05/14 05:31:23;;;;;;;0.98;0.88;;;12.70;99.90;;;;;;4946877;28;20562;-64
2023/05/14 05:33:50;;;;;;;0.65;0.50;;;12.70;99.90;;;;;;4947464;28;20218;-64
2023/05/14 05:36:18;;;;;;;0.80;0.60;;;12.80;99.90;;;;;;4948506;28;20221;-64
2023/05/14 05:38:48;;;;;;;0.70;0.70;;;12.80;99.90;;;;;;4954634;28;20652;-64
2023/05/14 05:41:15;;;;;;;0.80;0.80;;;12.80;99.90;;;;;;4949961;28;20242;-65
2023/05/14 05:43:43;;;;;;;0.70;0.60;;;12.80;99.90;;;;;;4960404;28;20218;-65
2023/05/14 05:46:12;;;;;;;0.95;0.70;;;12.70;99.90;;;;;;4954126;28;20314;-65
2023/05/14 05:48:40;;;;;;;0.95;0.82;;;12.60;99.90;;;;;;4949797;28;20235;-64
2023/05/14 05:51:07;;;;;;;0.60;0.50;;;12.50;99.90;;;;;;4952309;28;20290;-64
2023/05/14 05:53:35;;;;;;;1.98;1.00;;;12.50;99.90;;;;;;4952799;28;20586;-65
2023/05/14 05:56:05;;;;;;;0.80;0.80;;;12.50;99.90;;;;;;4954106;28;20207;-65
2023/05/14 05:58:33;;;;;;;0.90;0.90;;;12.40;99.90;;;;;;4950410;28;20773;-64
2023/05/14 06:01:01;;;;;;;0.70;0.63;;;12.50;99.90;;;;;;4951981;28;20203;-64
2023/05/14 06:03:29;;;;;;;0.70;0.60;;;12.40;99.90;;;;;;4950480;28;20210;-65
2023/05/14 06:05:57;;;;;;;0.70;0.60;;;12.50;99.90;;;;;;4954547;28;20297;-65
2023/05/14 06:08:25;;;;;;;0.73;0.73;;;12.60;99.90;;;;;;4949878;28;20219;-65
2023/05/14 06:10:53;;;;;;;1.00;0.90;;;12.80;99.90;;;;;;4947878;28;20222;-65
2023/05/14 06:13:22;;;;;;;0.75;0.70;;;13.00;99.90;;;;;;4954824;28;20203;-65
2023/05/14 06:15:50;;;;;;;0.70;0.70;;;13.10;99.90;;;;;;4954874;28;20244;-65
2023/05/14 06:18:17;;;;;;;0.93;0.80;;;13.20;99.90;;;;;;4953395;28;20224;-65
2023/05/14 06:20:45;;;;;;;1.05;0.95;;;13.20;99.90;;;;;;4941846;28;20239;-64
2023/05/14 06:23:13;;;;;;;1.17;0.70;;;13.20;99.90;;;;;;4947194;28;20213;-64
2023/05/14 06:25:41;;;;;;;0.80;0.77;;;13.20;99.90;;;;;;4950394;28;21026;-65
2023/05/14 06:28:09;;;;;;;0.80;0.60;;;13.30;99.90;;;;;;4939652;28;20242;-64
2023/05/14 06:30:38;;;;;;;0.73;0.73;;;13.40;99.90;;;;;;4951462;28;20296;-64
2023/05/14 06:33:06;;;;;;;1.00;0.82;;;13.60;99.90;;;;;;4947209;28;20219;-64
2023/05/14 06:35:34;;;;;;;1.00;0.85;;;13.80;99.90;;;;;;4949237;28;20207;-65
2023/05/14 06:38:02;;;;;;;0.70;0.70;;;14.00;99.90;;;;;;4951956;28;20254;-65
2023/05/14 06:40:30;;;;;;;0.65;0.60;;;14.20;99.90;;;;;;4948531;28;22229;-65
2023/05/14 06:42:58;;;;;;;1.13;0.68;;;14.40;99.90;;;;;;4948293;28;20321;-65
2023/05/14 06:45:28;;;;;;;0.70;0.60;;;14.60;99.90;;;;;;4950229;28;20211;-65
2023/05/14 06:47:59;;;;;;;0.60;0.50;;;14.60;99.90;;;;;;4949320;28;20207;-64
2023/05/14 06:50:27;;;;;;;0.70;0.70;;;14.80;99.90;;;;;;4946325;28;20207;-65
2023/05/14 06:52:55;;;;;;;1.02;0.93;;;15.00;99.90;;;;;;4946866;28;20633;-66
2023/05/14 06:55:23;;;;;;;1.65;1.55;;;14.90;99.90;;;;;;4948639;28;20244;-64
2023/05/14 06:57:51;;;;;;;0.80;0.65;;;14.80;99.90;;;;;;4947607;28;20745;-65
2023/05/14 07:00:20;;;;;;;0.70;0.63;;;14.90;99.90;;;;;;4949596;28;20294;-64
2023/05/14 07:02:48;;;;;;;0.75;0.52;;;14.90;99.90;;;;;;4948313;28;20199;-66
2023/05/14 07:05:18;;;;;;;0.60;0.45;;;14.90;99.90;;;;;;4949811;28;20211;-65
2023/05/14 07:07:46;;;;;;;0.60;0.50;;;15.00;99.90;;;;;;4947097;28;20211;-65
2023/05/14 07:10:14;;;;;;;0.60;0.40;;;15.00;99.90;;;;;;4948477;28;20282;-64
2023/05/14 07:12:42;;;;;;;0.70;0.57;;;15.00;99.90;;;;;;4946586;28;20222;-65
2023/05/14 07:15:11;;;;;;;0.68;0.50;;;15.20;99.90;;;;;;4947531;28;20211;-65
2023/05/14 07:17:38;;;;;;;1.77;0.80;;;15.20;99.90;;;;;;4945739;28;20291;-65
2023/05/14 07:20:08;;;;;;;0.60;0.40;;;15.20;99.90;;;;;;4943957;28;20714;-64
2023/05/14 07:22:37;;;;;;;1.13;0.85;;;15.30;99.90;;;;;;4949095;28;20222;-66
2023/05/14 07:25:06;;;;;;;0.60;0.57;;;15.60;99.90;;;;;;4948994;28;20271;-65
2023/05/14 07:27:34;;;;;;;2.17;0.88;;;15.90;99.90;;;;;;4949343;28;20647;-65
2023/05/14 07:30:02;;;;;;;0.70;0.70;;;16.10;99.90;;;;;;4945665;28;20231;-65
2023/05/14 07:32:30;;;;;;;1.02;0.82;;;16.30;99.90;;;;;;4947985;28;20738;-65
2023/05/14 07:34:58;;;;;;;0.60;0.50;;;16.40;99.90;;;;;;4948195;28;20204;-64
2023/05/14 07:37:26;;;;;;;0.60;0.50;;;16.40;99.90;;;;;;4947922;28;20227;-65
2023/05/14 07:39:56;;;;;;;0.70;0.50;;;16.60;99.90;;;;;;4948674;28;20230;-64
2023/05/14 07:42:24;;;;;;;0.60;0.57;;;16.70;99.90;;;;;;4948175;28;20651;-65
2023/05/14 07:45:02;;;;;;;0.60;0.50;;;16.80;99.90;;;;;;4946699;28;20215;-65
2023/05/14 07:47:30;;;;;;;0.60;0.50;;;16.90;99.90;;;;;;4946567;28;20222;-64
2023/05/14 07:49:58;;;;;;;0.70;0.60;;;16.70;99.90;;;;;;4948924;28;20238;-63
2023/05/14 07:52:26;;;;;;;0.70;0.60;;;16.80;99.90;;;;;;4947020;28;20302;-64
2023/05/14 07:54:56;;;;;;;0.63;0.57;;;17.00;99.90;;;;;;4950332;28;20203;-65
2023/05/14 07:57:23;;;;;;;0.60;0.47;;;17.10;99.90;;;;;;4948296;28;20207;-65
2023/05/14 07:59:51;;;;;;;0.77;0.63;;;17.00;99.90;;;;;;4943977;28;20825;-64
2023/05/14 08:02:19;;;;;;;0.80;0.80;;;17.00;99.90;;;;;;4948557;28;20242;-64
2023/05/14 08:04:47;;;;;;;0.70;0.60;;;17.10;99.90;;;;;;4947298;28;20214;-65
2023/05/14 08:07:15;;;;;;;0.60;0.50;;;17.30;99.90;;;;;;4948186;28;20285;-64
2023/05/14 08:09:43;;;;;;;0.60;0.50;;;17.30;99.90;;;;;;4948427;28;20233;-65
2023/05/14 08:12:12;;;;;;;0.80;0.80;;;17.20;99.90;;;;;;4947414;28;20570;-65
2023/05/14 08:14:40;;;;;;;0.75;0.68;;;17.30;99.90;;;;;;4949144;28;20388;-64
2023/05/14 08:17:08;;;;;;;0.60;0.40;;;17.40;99.90;;;;;;4947913;28;20290;-65
2023/05/14 08:19:36;;;;;;;0.60;0.50;;;17.70;99.90;;;;;;4948128;28;20226;-64
2023/05/14 08:22:04;;;;;;;0.70;0.70;;;17.80;99.90;;;;;;4948337;28;20215;-64
2023/05/14 08:24:32;;;;;;;0.60;0.55;;;17.80;99.90;;;;;;4948949;28;20286;-65
2023/05/14 08:27:01;;;;;;;0.70;0.63;;;17.80;99.90;;;;;;4947364;28;20649;-64
2023/05/14 08:29:30;;;;;;;0.82;0.77;;;17.70;99.90;;;;;;4946013;28;20315;-65
2023/05/14 08:31:58;;;;;;;0.80;0.60;;;17.80;99.90;;;;;;4945675;28;20303;-65
2023/05/14 08:34:38;;;;;;;0.60;0.47;;;18.10;99.90;;;;;;4947658;28;20231;-65
2023/05/14 08:37:06;;;;;;;0.75;0.68;;;18.00;99.90;;;;;;4948344;28;20270;-64
2023/05/14 08:39:34;;;;;;;0.90;0.75;;;18.10;99.90;;;;;;4944579;28;20868;-65
2023/05/14 08:42:05;;;;;;;0.80;0.73;;;18.40;99.90;;;;;;4944709;28;20211;-66
2023/05/14 08:44:39;;;;;;;0.80;0.80;;;18.70;99.90;;;;;;4946106;28;20754;-65
2023/05/14 08:47:07;;;;;;;0.70;0.57;;;19.00;99.90;;;;;;4947651;28;20710;-65
2023/05/14 08:49:40;;;;;;;0.60;0.60;;;19.10;99.90;;;;;;4946930;28;20258;-65
2023/05/14 08:52:09;;;;;;;0.60;0.50;;;19.30;99.90;;;;;;4946939;28;20217;-65
2023/05/14 08:54:37;;;;;;;0.77;0.65;;;19.20;99.90;;;;;;4946522;28;20203;-65
2023/05/14 08:57:07;;;;;;;0.60;0.47;;;19.30;99.90;;;;;;4947604;28;20282;-64
2023/05/14 08:59:37;;;;;;;0.60;0.50;;;19.60;99.90;;;;;;4944603;28;20223;-65
2023/05/14 09:02:06;;;;;;;0.60;0.47;;;19.60;99.90;;;;;;4943870;28;20642;-66
2023/05/14 09:04:35;;;;;;;0.95;0.68;;;19.90;99.90;;;;;;4945904;28;20581;-65
2023/05/14 09:07:05;;;;;;;0.80;0.70;;;20.00;99.90;;;;;;4951585;28;20221;-65
2023/05/14 09:09:33;;;;;;;1.05;0.95;;;20.00;99.90;;;;;;4942760;28;20310;-65
2023/05/14 09:12:01;;;;;;;0.70;0.70;;;20.00;99.90;;;;;;4948075;28;20235;-64
2023/05/14 09:14:29;;;;;;;0.77;0.50;;;20.10;99.90;;;;;;4951475;28;20211;-65
2023/05/14 09:16:59;;;;;;;0.63;0.60;;;20.40;99.90;;;;;;4950817;28;20203;-64
2023/05/14 09:19:27;;;;;;;0.70;0.60;;;20.80;99.90;;;;;;4939407;28;20223;-65
2023/05/14 09:21:57;;;;;;;0.80;0.77;;;20.80;99.90;;;;;;4949621;28;20246;-67
2023/05/14 09:24:27;;;;;;;0.60;0.50;;;20.80;99.90;;;;;;4952781;28;20572;-65
2023/05/14 09:26:58;;;;;;;0.60;0.50;;;20.70;99.90;;;;;;4954454;28;20209;-65
2023/05/14 09:29:27;;;;;;;0.60;0.50;;;20.80;99.90;;;;;;4951884;28;20773;-64
2023/05/14 09:31:55;;;;;;;0.90;0.60;;;20.70;99.90;;;;;;4952012;28;20235;-65
2023/05/14 09:34:26;;;;;;;0.60;0.52;;;20.40;99.90;;;;;;4951994;28;20219;-65
2023/05/14 09:36:58;;;;;;;0.80;0.80;;;20.10;99.90;;;;;;4952084;28;20251;-65
2023/05/14 09:39:26;;;;;;;0.60;0.40;;;19.70;99.90;;;;;;4952324;28;20306;-65
2023/05/14 09:41:55;;;;;;;0.60;0.50;;;19.60;99.90;;;;;;4951999;28;20619;-65
2023/05/14 09:44:24;;;;;;;0.77;0.55;;;19.70;99.90;;;;;;4953959;28;20242;-65
2023/05/14 09:46:53;;;;;;;0.70;0.40;;;19.60;99.90;;;;;;4955436;28;20645;-65
2023/05/14 09:49:21;;;;;;;0.60;0.50;;;19.50;99.90;;;;;;4955029;28;20693;-64
2023/05/14 09:51:51;;;;;;;0.50;0.40;;;19.30;99.90;;;;;;4955555;28;20637;-65
2023/05/14 09:54:19;;;;;;;0.60;0.50;;;19.40;99.90;;;;;;4955673;28;20307;-65
2023/05/14 09:56:46;;;;;;;0.75;0.60;;;19.40;99.90;;;;;;4955676;28;20235;-65
2023/05/14 09:59:14;;;;;;;0.70;0.70;;;19.30;99.90;;;;;;4955312;28;20692;-65
2023/05/14 10:01:43;;;;;;;0.60;0.40;;;19.20;99.90;;;;;;4955267;28;20237;-65
2023/05/14 10:04:12;;;;;;;0.60;0.50;;;18.80;99.90;;;;;;4954864;28;20230;-65
2023/05/14 10:06:41;;;;;;;0.82;0.60;;;18.70;99.90;;;;;;4955403;28;20207;-65
2023/05/14 10:09:13;;;;;;;1.52;1.42;;;18.50;99.90;;;;;;4947229;28;20231;-65
2023/05/14 10:11:45;;;;;;;0.60;0.50;;;18.50;99.90;;;;;;4955410;28;20298;-65
2023/05/14 10:14:18;;;;;;;0.82;0.75;;;18.30;99.90;;;;;;4954993;28;20258;-65
2023/05/14 10:16:49;;;;;;;0.60;0.50;;;18.20;99.90;;;;;;4955506;28;20257;-64
2023/05/14 10:19:20;;;;;;;0.70;0.50;;;18.10;99.90;;;;;;4952346;28;20642;-65
2023/05/14 10:21:55;;;;;;;0.70;0.60;;;18.00;99.90;;;;;;4954959;28;20223;-64
2023/05/14 10:24:25;;;;;;;0.60;0.40;;;18.00;99.90;;;;;;4947783;28;20297;-64
2023/05/14 10:26:53;;;;;;;1.10;0.50;;;18.10;99.90;;;;;;4955061;28;20298;-65
2023/05/14 10:29:32;;;;;;;0.80;0.57;;;18.40;99.90;;;;;;4955032;28;20251;-64
2023/05/14 10:32:04;;;;;;;0.65;0.60;;;19.00;99.90;;;;;;4954020;28;20207;-67
2023/05/14 10:34:36;;;;;;;1.27;0.93;;;19.40;99.90;;;;;;4954830;28;20207;-65
2023/05/14 10:37:06;;;;;;;1.23;0.65;;;19.50;99.90;;;;;;4953368;28;20215;-64
2023/05/14 10:39:46;;;;;;;0.60;0.50;;;19.60;99.90;;;;;;4949244;28;20227;-65
2023/05/14 10:42:17;;;;;;;0.60;0.50;;;19.50;99.90;;;;;;4954451;28;20207;-64
2023/05/14 10:44:51;;;;;;;0.60;0.45;;;19.40;99.90;;;;;;4954855;28;20270;-65
2023/05/14 10:47:19;;;;;;;0.60;0.50;;;19.30;99.90;;;;;;4946896;28;20640;-64
2023/05/14 10:49:51;;;;;;;0.60;0.40;;;19.40;99.90;;;;;;4954304;28;20326;-65
2023/05/14 10:52:20;;;;;;;1.02;0.55;;;19.50;99.90;;;;;;4954370;28;20213;-65
2023/05/14 10:54:55;;;;;;;0.55;0.40;;;19.70;99.90;;;;;;4954232;28;20670;-65
2023/05/14 10:57:24;;;;;;;0.68;0.65;;;19.90;99.90;;;;;;4954323;28;20207;-64
2023/05/14 10:59:54;;;;;;;0.60;0.40;;;20.10;99.90;;;;;;4953626;28;20286;-65
2023/05/14 11:02:24;;;;;;;0.60;0.47;;;20.20;99.90;;;;;;4953138;28;20234;-64
2023/05/14 11:04:57;;;;;;;0.85;0.85;;;20.00;99.90;;;;;;4954397;28;20210;-66
2023/05/14 11:07:28;;;;;;;0.60;0.50;;;19.60;99.90;;;;;;4954334;28;20246;-65
2023/05/14 11:10:03;;;;;;;0.60;0.40;;;19.70;99.90;;;;;;4954045;28;20308;-65
2023/05/14 11:12:31;;;;;;;0.50;0.40;;;19.60;99.90;;;;;;4953959;28;20643;-65
2023/05/14 11:15:00;;;;;;;0.60;0.50;;;19.80;99.90;;;;;;4953920;28;20678;-65
2023/05/14 11:17:30;;;;;;;0.50;0.40;;;19.90;99.90;;;;;;4954079;28;20668;-64
2023/05/14 11:20:00;;;;;;;0.60;0.50;;;20.20;99.90;;;;;;4953315;28;20605;-65
2023/05/14 11:22:28;;;;;;;1.25;1.13;;;20.20;99.90;;;;;;4953822;28;20219;-64
2023/05/14 11:24:56;;;;;;;0.57;0.40;;;20.10;99.90;;;;;;4953713;28;20239;-64
2023/05/14 11:27:25;;;;;;;0.80;0.60;;;19.90;99.90;;;;;;4954008;28;20215;-65
2023/05/14 11:29:54;;;;;;;0.60;0.50;;;19.90;99.90;;;;;;4953773;28;20241;-64
2023/05/14 11:32:22;;;;;;;0.63;0.57;;;19.90;99.90;;;;;;4945825;28;20205;-64
2023/05/14 11:34:51;;;;;;;0.60;0.50;;;19.80;99.90;;;;;;4953548;28;20213;-65
2023/05/14 11:37:19;;;;;;;0.60;0.40;;;19.60;99.90;;;;;;4953759;28;20266;-64
2023/05/14 11:39:48;;;;;;;0.70;0.63;;;19.50;99.90;;;;;;4953775;28;20262;-64
2023/05/14 11:42:18;;;;;;;0.60;0.50;;;19.70;99.90;;;;;;4953256;28;20282;-65
2023/05/14 11:44:49;;;;;;;0.70;0.70;;;19.80;99.90;;;;;;4953739;28;20242;-65
2023/05/14 11:47:18;;;;;;;0.60;0.50;;;19.80;99.90;;;;;;4953514;28;20294;-64
2023/05/14 11:49:46;;;;;;;0.60;0.55;;;19.90;99.90;;;;;;4953380;28;20243;-65
2023/05/14 11:52:18;;;;;;;1.00;0.75;;;19.90;99.90;;;;;;4952783;28;20250;-64
2023/05/14 11:54:46;;;;;;;0.60;0.60;;;19.90;99.90;;;;;;4953513;28;20217;-65
2023/05/14 11:57:16;;;;;;;0.60;0.50;;;20.40;99.90;;;;;;4953438;28;20294;-64
2023/05/14 11:59:44;;;;;;;0.60;0.45;;;21.00;99.90;;;;;;4953329;28;20326;-64
2023/05/14 12:02:15;;;;;;;0.75;0.73;;;21.40;99.90;;;;;;4952821;28;20251;-65
2023/05/14 12:04:44;;;;;;;0.60;0.50;;;21.80;99.90;;;;;;4953321;28;20629;-66
2023/05/14 12:07:14;;;;;;;0.65;0.60;;;22.50;99.90;;;;;;4952793;28;20211;-64
2023/05/14 12:09:47;;;;;;;0.68;0.63;;;22.80;99.90;;;;;;4953356;28;20275;-65
2023/05/14 12:12:18;;;;;;;0.60;0.55;;;22.90;99.90;;;;;;4952944;28;20239;-65
2023/05/14 12:14:46;;;;;;;0.60;0.50;;;22.60;99.90;;;;;;4952962;28;20236;-65
2023/05/14 12:17:17;;;;;;;0.50;0.40;;;22.30;99.90;;;;;;4945088;28;20315;-65
2023/05/14 12:19:47;;;;;;;0.70;0.60;;;22.40;99.90;;;;;;4953229;28;20247;-65
2023/05/14 12:22:17;;;;;;;0.50;0.40;;;22.80;99.90;;;;;;4952528;28;20259;-65
2023/05/14 12:24:53;;;;;;;0.63;0.63;;;22.90;99.90;;;;;;4952840;28;20264;-65
2023/05/14 12:27:23;;;;;;;0.60;0.50;;;22.90;99.90;;;;;;4953044;28;20208;-65
2023/05/14 12:29:57;;;;;;;0.60;0.40;;;23.00;99.90;;;;;;4952932;28;20263;-66
2023/05/14 12:32:41;;;;;;;0.65;0.57;;;23.30;99.90;;;;;;4946926;28;20664;-65
2023/05/14 12:35:09;;;;;;;0.60;0.50;;;23.30;99.90;;;;;;4952687;28;20242;-65
2023/05/14 12:37:38;;;;;;;0.65;0.55;;;23.60;99.30;;;;;;4952955;28;20320;-65
2023/05/14 12:40:08;;;;;;;0.60;0.50;;;23.70;99.40;;;;;;4952465;28;20259;-65
2023/05/14 12:42:36;;;;;;;0.60;0.45;;;23.70;99.50;;;;;;4952628;28;20221;-65
2023/05/14 12:45:07;;;;;;;0.73;0.73;;;24.10;97.90;;;;;;4952687;28;20705;-65
2023/05/14 12:47:35;;;;;;;0.70;0.70;;;23.90;98.00;;;;;;4952782;28;20691;-65
2023/05/14 12:50:06;;;;;;;0.80;0.80;;;24.00;97.90;;;;;;4952988;28;20244;-65
2023/05/14 12:52:34;;;;;;;0.70;0.50;;;24.10;98.90;;;;;;4952766;28;20292;-65
2023/05/14 12:55:07;;;;;;;0.70;0.60;;;23.90;96.60;;;;;;4952015;28;20241;-65
2023/05/14 12:57:37;;;;;;;0.60;0.45;;;23.70;97.30;;;;;;4952745;28;20679;-65